METAR Analyzer

一覧表示

Hello, Guest. (Login)

ROAH/OKA  -  那覇

観測日時
2021-11-28 19:30 (UTC) (16分前)
気温
21
露点
15
湿数
6
相対湿度
68.6%
QNH
1020hPa
推定現地気圧
1019.6hPa
推定海面気圧
1020.0hPa
体感温度
13.1
(無風時)
21.2
HI
20.9
気温前日比
±0
体感温度前日比
+1
HI前日比
+0.4
水平視程
>10000m
鉛直視程
データなし
雲底高度
11000ft AGL
V/I
VMC (VFR)
RVR
No RVR data
卓越風
11kt from 90°
ガスト
No gust
降水
弱い雨
その他の天気
報告なし
少しの雲 @ 3500ft AGL / 隙間のある雲 @ 11000ft AGL

ROAH 281930Z 09011KT 9999 -RA FEW035 BKN110 21/15 Q1020

RODN  -  嘉手納基地

観測日時
2021-11-28 19:30 (UTC) (16分前)
気温
20
露点
15
湿数
5
相対湿度
72.9%
QNH
1020.3hPa
推定現地気圧
1015.0hPa
推定海面気圧
1020.2hPa
体感温度
12.2
(無風時)
20.6
HI
20
気温前日比
データなし
体感温度前日比
データなし
HI前日比
データなし
水平視程
>10SM
鉛直視程
データなし
雲底高度
No dense clouds
V/I
VMC (VFR)
RVR
No RVR data
卓越風
10kt from 90°
ガスト
No gust
降水
報告なし
その他の天気
報告なし
少しの雲 @ 9000ft AGL

RODN 281930Z AUTO 09010KT 10SM FEW090 20/15 A3013 RMK AO2 RAE05RAB28E30RAB30 SLP209 $

ROTM  -  普天間飛行場